createdAt,value
2018-07-24T00:00:43.256Z,63.40
2018-07-24T00:03:11.023Z,64.20
2018-07-24T00:05:38.811Z,64.60
2018-07-24T00:08:06.581Z,63.80
2018-07-24T00:10:34.338Z,63.70
2018-07-24T00:13:02.217Z,64.20
2018-07-24T00:15:29.987Z,64.30
2018-07-24T00:18:03.863Z,64.00
2018-07-24T00:20:31.641Z,63.50
2018-07-24T00:22:59.474Z,63.30
2018-07-24T00:25:27.186Z,63.90
2018-07-24T00:27:54.964Z,64.00
2018-07-24T00:30:22.845Z,64.50
2018-07-24T00:32:50.550Z,63.80
2018-07-24T00:35:18.289Z,63.30
2018-07-24T00:37:45.994Z,63.60
2018-07-24T00:40:13.673Z,63.80
2018-07-24T00:42:41.459Z,64.10
2018-07-24T00:45:09.205Z,64.20
2018-07-24T00:47:37.123Z,65.00
2018-07-24T00:50:04.978Z,64.70
2018-07-24T00:52:32.865Z,64.50
2018-07-24T00:57:28.178Z,64.90
2018-07-24T00:59:55.924Z,64.70
2018-07-24T01:02:23.850Z,65.10
2018-07-24T01:04:51.610Z,65.20
2018-07-24T01:07:19.385Z,64.90
2018-07-24T01:09:47.134Z,64.30
2018-07-24T01:12:14.949Z,64.00
2018-07-24T01:14:42.868Z,63.80
2018-07-24T01:19:38.432Z,64.70
2018-07-24T01:22:06.323Z,65.50
2018-07-24T01:24:35.366Z,65.30
2018-07-24T01:27:03.332Z,65.10
2018-07-24T01:29:31.158Z,64.90
2018-07-24T01:31:58.971Z,65.10
2018-07-24T01:34:26.638Z,64.70
2018-07-24T01:36:54.455Z,65.20
2018-07-24T01:39:22.268Z,65.10
2018-07-24T01:41:49.958Z,65.40
2018-07-24T01:44:17.773Z,65.20
2018-07-24T01:46:45.698Z,65.40
2018-07-24T01:49:13.433Z,64.90
2018-07-24T01:51:41.149Z,65.20
2018-07-24T01:54:08.905Z,64.90
2018-07-24T01:56:36.642Z,65.70
2018-07-24T01:59:04.606Z,65.30
2018-07-24T02:01:32.306Z,65.30
2018-07-24T02:06:27.579Z,65.20
2018-07-24T02:08:55.305Z,65.40
2018-07-24T02:11:23.126Z,65.80
2018-07-24T02:13:50.867Z,66.10
2018-07-24T02:16:19.185Z,66.50
2018-07-24T02:18:47.154Z,66.30
2018-07-24T02:21:14.825Z,66.90
2018-07-24T02:23:42.565Z,67.10
2018-07-24T02:26:10.292Z,66.00
2018-07-24T02:28:38.045Z,65.80
2018-07-24T02:31:05.846Z,65.90
2018-07-24T02:33:33.554Z,65.90
2018-07-24T02:36:01.633Z,65.50
2018-07-24T02:38:29.349Z,65.80
2018-07-24T02:40:57.099Z,66.20
2018-07-24T02:43:24.857Z,66.20
2018-07-24T02:45:52.583Z,66.10
2018-07-24T02:48:20.385Z,67.30
2018-07-24T02:50:48.120Z,67.70
2018-07-24T02:53:15.851Z,68.00
2018-07-24T02:55:43.619Z,67.00
2018-07-24T02:58:11.356Z,66.30
2018-07-24T03:00:39.151Z,66.20
2018-07-24T03:03:06.990Z,65.80
2018-07-24T03:05:34.669Z,65.20
2018-07-24T03:08:03.049Z,65.20
2018-07-24T03:10:30.777Z,65.50
2018-07-24T03:12:58.428Z,66.40
2018-07-24T03:15:26.188Z,67.10
2018-07-24T03:17:53.836Z,67.20
2018-07-24T03:20:21.545Z,67.60
2018-07-24T03:22:49.242Z,66.40
2018-07-24T03:25:17.091Z,66.60
2018-07-24T03:27:44.846Z,66.40
2018-07-24T03:30:12.597Z,66.80
2018-07-24T03:35:07.954Z,65.60
2018-07-24T03:40:03.422Z,66.50
2018-07-24T03:42:31.126Z,65.80
2018-07-24T03:44:59.115Z,65.80
2018-07-24T03:47:26.777Z,65.90
2018-07-24T03:49:54.534Z,65.90
2018-07-24T03:52:22.968Z,65.80
2018-07-24T03:54:50.688Z,66.60
2018-07-24T03:57:18.383Z,66.60
2018-07-24T03:59:46.098Z,66.80
2018-07-24T04:02:14.280Z,67.30
2018-07-24T04:04:42.016Z,67.30
2018-07-24T04:07:09.779Z,67.10
2018-07-24T04:09:37.908Z,66.70
2018-07-24T04:12:06.794Z,66.70
2018-07-24T04:14:35.866Z,66.70
2018-07-24T04:17:03.689Z,67.00
2018-07-24T04:21:59.025Z,68.30
2018-07-24T04:24:26.807Z,69.00
2018-07-24T04:26:55.439Z,68.80
2018-07-24T04:29:23.278Z,68.90
2018-07-24T04:31:51.008Z,68.30
2018-07-24T04:39:13.953Z,68.10
2018-07-24T04:41:41.690Z,69.00
2018-07-24T04:44:09.357Z,70.00
2018-07-24T04:46:37.128Z,69.40
2018-07-24T04:49:04.998Z,69.50
2018-07-24T04:51:32.810Z,69.50
2018-07-24T04:54:00.634Z,69.50
2018-07-24T04:56:28.326Z,69.60
2018-07-24T04:58:56.037Z,69.90
2018-07-24T05:01:23.872Z,70.00
2018-07-24T05:03:51.505Z,70.10
2018-07-24T05:06:19.178Z,69.80
2018-07-24T05:08:46.834Z,69.70
2018-07-24T05:11:15.022Z,69.60
2018-07-24T05:13:42.677Z,70.60
2018-07-24T05:16:10.346Z,70.60
2018-07-24T05:18:37.969Z,70.80
2018-07-24T05:21:05.844Z,71.50
2018-07-24T05:23:33.545Z,71.40
2018-07-24T05:26:01.207Z,71.80
2018-07-24T05:28:28.883Z,71.90
2018-07-24T05:30:56.653Z,71.90
2018-07-24T05:33:24.351Z,71.90
2018-07-24T05:35:51.998Z,71.80
2018-07-24T05:38:19.767Z,72.00
2018-07-24T05:40:47.484Z,71.70
2018-07-24T05:43:15.765Z,72.00
2018-07-24T05:45:43.530Z,72.10
2018-07-24T05:48:11.167Z,72.20
2018-07-24T05:53:06.524Z,72.80
2018-07-24T05:55:34.188Z,73.00
2018-07-24T05:58:01.826Z,73.10
2018-07-24T06:00:29.564Z,73.00
2018-07-24T06:02:57.291Z,73.00
2018-07-24T06:05:25.015Z,72.90
2018-07-24T06:07:52.790Z,73.00
2018-07-24T06:10:20.434Z,73.20
2018-07-24T06:12:48.138Z,73.30
2018-07-24T06:15:15.877Z,73.30
2018-07-24T06:17:43.614Z,73.20
2018-07-24T06:20:11.561Z,73.50
2018-07-24T06:22:39.213Z,73.90
2018-07-24T06:25:07.261Z,73.50
2018-07-24T06:27:35.673Z,73.50
2018-07-24T06:30:04.541Z,72.80
2018-07-24T06:32:32.250Z,72.60
2018-07-24T06:35:00.086Z,72.50
2018-07-24T06:37:27.822Z,73.20
2018-07-24T06:39:55.517Z,72.70
2018-07-24T06:42:23.356Z,73.00
2018-07-24T06:44:51.013Z,71.70
2018-07-24T06:47:18.865Z,71.90
2018-07-24T06:49:46.615Z,70.20
2018-07-24T06:52:14.318Z,70.30
2018-07-24T06:54:42.035Z,70.70
2018-07-24T06:57:10.043Z,70.70
2018-07-24T06:59:42.009Z,70.90
2018-07-24T07:02:09.786Z,71.00
2018-07-24T07:04:37.471Z,70.80
2018-07-24T07:07:05.362Z,70.20
2018-07-24T07:09:33.035Z,68.50
2018-07-24T07:12:00.739Z,67.70
2018-07-24T07:14:28.441Z,67.20
2018-07-24T07:16:56.190Z,67.20
2018-07-24T07:19:23.917Z,67.50
2018-07-24T07:21:51.606Z,65.90
2018-07-24T07:24:19.310Z,66.30
2018-07-24T07:26:47.178Z,64.90
2018-07-24T07:29:14.899Z,65.20
2018-07-24T07:31:42.586Z,64.20
2018-07-24T07:34:10.253Z,64.70
2018-07-24T07:39:07.825Z,62.50
2018-07-24T07:41:35.474Z,63.40
2018-07-24T07:44:03.267Z,63.10
2018-07-24T07:46:30.984Z,61.40
2018-07-24T07:48:58.682Z,60.70
2018-07-24T07:51:26.504Z,60.40
2018-07-24T07:53:54.162Z,60.10
2018-07-24T07:56:22.038Z,59.30
2018-07-24T07:58:49.743Z,58.80
2018-07-24T08:01:17.464Z,58.10
2018-07-24T08:03:45.222Z,57.20
2018-07-24T08:08:40.467Z,56.50
2018-07-24T08:11:08.198Z,56.80
2018-07-24T08:13:36.144Z,55.80
2018-07-24T08:16:03.849Z,56.80
2018-07-24T08:18:31.503Z,55.00
2018-07-24T08:20:59.211Z,54.70
2018-07-24T08:23:27.145Z,54.70
2018-07-24T08:25:54.822Z,54.00
2018-07-24T08:28:22.567Z,53.70
2018-07-24T08:30:50.634Z,52.10
2018-07-24T08:33:18.258Z,51.90
2018-07-24T08:35:46.164Z,51.80
2018-07-24T08:38:13.809Z,51.80
2018-07-24T08:40:41.491Z,51.70
2018-07-24T08:43:09.171Z,51.30
2018-07-24T08:45:36.938Z,51.20
2018-07-24T08:48:04.759Z,50.80
2018-07-24T08:50:32.394Z,51.00
2018-07-24T08:53:00.176Z,50.80
2018-07-24T08:55:28.009Z,50.60
2018-07-24T08:57:55.463Z,51.10
2018-07-24T09:00:23.163Z,50.20
2018-07-24T09:02:50.793Z,50.90
2018-07-24T09:05:18.484Z,50.00
2018-07-24T09:07:46.252Z,50.70
2018-07-24T09:10:14.633Z,49.40
2018-07-24T09:12:42.305Z,48.90
2018-07-24T09:15:10.131Z,49.90
2018-07-24T09:17:37.834Z,49.20
2018-07-24T09:20:05.536Z,49.10
2018-07-24T09:22:33.279Z,49.20
2018-07-24T09:25:00.955Z,48.00
2018-07-24T09:27:28.574Z,47.70
2018-07-24T09:29:56.299Z,47.80
2018-07-24T09:32:24.007Z,47.10
2018-07-24T09:34:51.696Z,46.90
2018-07-24T09:37:19.373Z,46.70
2018-07-24T09:39:47.158Z,46.80
2018-07-24T09:42:14.813Z,46.50
2018-07-24T09:44:42.490Z,44.80
2018-07-24T09:47:10.173Z,44.60
2018-07-24T09:49:37.842Z,44.90
2018-07-24T09:54:33.130Z,43.40
2018-07-24T09:57:00.826Z,43.20
2018-07-24T09:59:28.588Z,43.60
2018-07-24T10:01:56.189Z,43.80
2018-07-24T10:04:23.861Z,43.60
2018-07-24T10:06:51.574Z,43.80
2018-07-24T10:09:19.223Z,42.80
2018-07-24T10:11:46.928Z,43.10
2018-07-24T10:14:14.586Z,42.40
2018-07-24T10:16:42.346Z,41.30
2018-07-24T10:19:09.906Z,41.10
2018-07-24T10:21:37.617Z,40.70
2018-07-24T10:24:05.393Z,40.70
2018-07-24T10:26:33.054Z,40.00
2018-07-24T10:29:01.194Z,40.40
2018-07-24T10:31:28.893Z,40.20
2018-07-24T10:33:56.558Z,40.60
2018-07-24T10:36:24.338Z,41.10
2018-07-24T10:38:51.997Z,41.20
2018-07-24T10:41:19.688Z,40.60
2018-07-24T10:43:47.669Z,38.20
2018-07-24T10:46:15.375Z,38.50
2018-07-24T10:48:43.080Z,39.80
2018-07-24T10:51:10.788Z,40.20
2018-07-24T10:53:38.504Z,39.80
2018-07-24T10:56:06.461Z,39.70
2018-07-24T10:58:34.337Z,39.30
2018-07-24T11:01:02.040Z,38.60
2018-07-24T11:03:30.024Z,36.70
2018-07-24T11:05:57.771Z,37.70
2018-07-24T11:08:26.693Z,36.80
2018-07-24T11:10:54.519Z,37.80
2018-07-24T11:13:22.321Z,37.60
2018-07-24T11:15:49.956Z,38.60
2018-07-24T11:18:17.686Z,38.80
2018-07-24T11:20:45.366Z,38.30
2018-07-24T11:23:13.189Z,37.50
2018-07-24T11:25:40.859Z,37.50
2018-07-24T11:28:08.704Z,37.80
2018-07-24T11:30:36.428Z,37.90
2018-07-24T11:33:04.188Z,37.20
2018-07-24T11:35:32.079Z,37.10
2018-07-24T11:37:59.749Z,37.00
2018-07-24T11:40:27.567Z,37.80
2018-07-24T11:42:55.505Z,37.70
2018-07-24T11:45:23.337Z,38.20
2018-07-24T11:47:51.079Z,38.10
2018-07-24T11:50:18.772Z,37.00
2018-07-24T11:52:46.499Z,37.00
2018-07-24T11:55:14.133Z,37.20
2018-07-24T11:57:41.965Z,36.80
2018-07-24T12:00:09.775Z,38.10
2018-07-24T12:02:37.451Z,36.70
2018-07-24T12:05:05.316Z,35.70
2018-07-24T12:07:33.034Z,36.10
2018-07-24T12:12:28.490Z,34.70
2018-07-24T12:14:56.273Z,34.90
2018-07-24T12:17:23.989Z,35.80
2018-07-24T12:19:51.856Z,35.40
2018-07-24T12:22:19.984Z,35.10
2018-07-24T12:24:47.745Z,36.10
2018-07-24T12:27:15.499Z,35.10
2018-07-24T12:29:43.232Z,34.30
2018-07-24T12:32:10.981Z,34.10
2018-07-24T12:34:38.707Z,34.60
2018-07-24T12:37:06.426Z,33.80
2018-07-24T12:39:34.099Z,32.40
2018-07-24T12:42:01.799Z,33.00
2018-07-24T12:44:29.739Z,32.70
2018-07-24T12:46:57.434Z,33.50
2018-07-24T12:49:25.105Z,33.50
2018-07-24T12:51:52.843Z,33.80
2018-07-24T12:54:20.601Z,34.30
2018-07-24T12:56:48.262Z,32.40
2018-07-24T13:01:43.500Z,33.40
2018-07-24T13:04:11.205Z,32.40
2018-07-24T13:06:38.901Z,33.40
2018-07-24T13:09:08.531Z,33.50
2018-07-24T13:11:36.230Z,31.60
2018-07-24T13:14:03.988Z,32.40
2018-07-24T13:16:31.681Z,32.30
2018-07-24T13:18:59.379Z,31.90
2018-07-24T13:21:27.094Z,30.60
2018-07-24T13:24:10.052Z,30.70
2018-07-24T13:26:37.966Z,31.40
2018-07-24T13:29:05.702Z,31.50
2018-07-24T13:31:33.398Z,30.90
2018-07-24T13:34:01.156Z,31.80
2018-07-24T13:36:28.972Z,30.70
2018-07-24T13:38:56.649Z,31.40
2018-07-24T13:41:24.748Z,32.00
2018-07-24T13:43:52.478Z,32.60
2018-07-24T13:46:20.279Z,33.30
2018-07-24T13:48:48.035Z,33.00
2018-07-24T13:53:43.345Z,33.00
2018-07-24T13:56:11.048Z,33.00
2018-07-24T13:58:38.869Z,32.20
2018-07-24T14:01:06.848Z,32.80
2018-07-24T14:03:34.829Z,32.30
2018-07-24T14:06:02.595Z,31.80
2018-07-24T14:08:30.364Z,31.90
2018-07-24T14:10:57.946Z,32.60
2018-07-24T14:13:25.590Z,32.50
2018-07-24T14:27:25.665Z,31.20
2018-07-24T14:35:39.994Z,31.80
2018-07-24T14:44:15.874Z,32.10
2018-07-24T14:46:44.885Z,32.10
2018-07-24T14:49:12.661Z,31.50
2018-07-24T14:54:33.310Z,31.90
2018-07-24T14:57:19.520Z,31.60
2018-07-24T15:02:41.963Z,30.80
2018-07-24T15:05:09.968Z,30.40
2018-07-24T15:07:37.866Z,30.20
2018-07-24T15:10:05.604Z,31.20
2018-07-24T15:12:33.387Z,31.00
2018-07-24T15:15:01.436Z,31.20
2018-07-24T15:17:29.202Z,30.50
2018-07-24T15:19:56.859Z,30.90
2018-07-24T15:27:20.381Z,29.90
2018-07-24T15:32:15.767Z,30.10
2018-07-24T15:34:44.570Z,29.60
2018-07-24T15:37:12.223Z,30.00
2018-07-24T15:39:39.962Z,30.00
2018-07-24T15:42:07.674Z,29.80
2018-07-24T15:44:35.477Z,30.40
2018-07-24T15:47:03.244Z,29.90
2018-07-24T15:49:31.026Z,30.20
2018-07-24T15:51:58.786Z,30.00
2018-07-24T15:54:26.516Z,30.20
2018-07-24T15:56:54.275Z,30.30
2018-07-24T15:59:22.070Z,31.30
2018-07-24T16:01:49.868Z,31.00
2018-07-24T16:04:17.521Z,30.60
2018-07-24T16:06:45.354Z,31.20
2018-07-24T16:09:13.521Z,31.00
2018-07-24T16:11:41.354Z,31.00
2018-07-24T16:14:09.419Z,31.40
2018-07-24T16:16:37.600Z,31.10
2018-07-24T16:19:05.495Z,30.70
2018-07-24T16:21:33.182Z,31.10
2018-07-24T16:24:00.846Z,31.00
2018-07-24T16:26:28.560Z,31.10
2018-07-24T16:28:56.354Z,31.30
2018-07-24T16:31:24.101Z,30.50
2018-07-24T16:33:51.833Z,30.70
2018-07-24T16:36:20.788Z,30.60
2018-07-24T16:38:48.543Z,30.90
2018-07-24T16:41:16.281Z,30.10
2018-07-24T16:43:44.395Z,30.60
2018-07-24T16:46:12.143Z,31.10
2018-07-24T16:48:39.957Z,30.90
2018-07-24T16:51:07.727Z,31.10
2018-07-24T16:53:35.474Z,31.70
2018-07-24T16:56:03.205Z,31.30
2018-07-24T16:58:31.023Z,31.70
2018-07-24T17:00:58.781Z,32.50
2018-07-24T17:03:26.626Z,31.90
2018-07-24T17:05:54.355Z,32.60
2018-07-24T17:08:22.251Z,32.60
2018-07-24T17:10:50.116Z,33.00
2018-07-24T17:13:17.842Z,33.10
2018-07-24T17:15:45.496Z,33.10
2018-07-24T17:18:13.179Z,32.90
2018-07-24T17:20:41.045Z,33.20
2018-07-24T17:25:36.529Z,33.20
2018-07-24T17:28:04.338Z,33.20
2018-07-24T17:32:59.560Z,33.90
2018-07-24T17:35:27.232Z,34.50
2018-07-24T17:37:54.975Z,34.40
2018-07-24T17:40:22.808Z,34.50
2018-07-24T17:42:50.596Z,34.10
2018-07-24T17:45:18.298Z,34.50
2018-07-24T17:47:46.075Z,34.20
2018-07-24T17:50:13.797Z,34.30
2018-07-24T17:52:41.526Z,34.20
2018-07-24T17:55:09.385Z,34.30
2018-07-24T17:57:37.733Z,33.00
2018-07-24T18:00:05.511Z,33.30
2018-07-24T18:02:33.460Z,33.40
2018-07-24T18:05:01.542Z,33.30
2018-07-24T18:07:29.410Z,33.40
2018-07-24T18:09:57.089Z,33.60
2018-07-24T18:12:24.972Z,33.70
2018-07-24T18:14:52.816Z,34.00
2018-07-24T18:17:20.590Z,33.60
2018-07-24T18:19:48.325Z,33.90
2018-07-24T18:22:16.045Z,34.10
2018-07-24T18:27:11.473Z,34.20
2018-07-24T18:29:39.322Z,37.50
2018-07-24T18:32:07.457Z,39.30
2018-07-24T18:34:35.173Z,40.10
2018-07-24T18:37:02.917Z,40.50
2018-07-24T18:39:30.693Z,42.80
2018-07-24T18:41:58.334Z,42.70
2018-07-24T18:44:26.114Z,43.80
2018-07-24T18:46:53.867Z,43.80
2018-07-24T18:49:21.562Z,44.30
2018-07-24T18:51:49.316Z,45.00
2018-07-24T18:54:17.153Z,45.70
2018-07-24T18:56:44.854Z,45.20
2018-07-24T18:59:12.582Z,45.30
2018-07-24T19:01:40.267Z,45.50
2018-07-24T19:04:08.011Z,45.30
2018-07-24T19:06:35.671Z,45.60
2018-07-24T19:09:05.297Z,45.70
2018-07-24T19:11:33.044Z,45.90
2018-07-24T19:14:00.811Z,46.10
2018-07-24T19:16:33.989Z,46.20
2018-07-24T19:19:01.895Z,46.30
2018-07-24T19:21:29.659Z,46.50
2018-07-24T19:23:57.380Z,46.50
2018-07-24T19:28:52.822Z,46.90
2018-07-24T19:31:20.669Z,46.90
2018-07-24T19:33:48.333Z,46.70
2018-07-24T19:36:16.110Z,46.60
2018-07-24T19:38:43.975Z,46.80
2018-07-24T19:41:11.717Z,46.80
2018-07-24T19:43:39.489Z,46.80
2018-07-24T19:46:07.192Z,47.20
2018-07-24T19:48:34.830Z,47.50
2018-07-24T19:51:02.593Z,47.60
2018-07-24T19:53:30.249Z,47.80
2018-07-24T19:55:58.038Z,47.70
2018-07-24T19:58:26.441Z,47.90
2018-07-24T20:00:54.282Z,48.20
2018-07-24T20:03:22.037Z,48.30
2018-07-24T20:08:17.333Z,48.60
2018-07-24T20:10:45.079Z,48.80
2018-07-24T20:13:12.789Z,48.90
2018-07-24T20:15:40.935Z,49.10
2018-07-24T20:18:08.797Z,49.30
2018-07-24T20:20:36.494Z,49.50
2018-07-24T20:23:04.238Z,49.60
2018-07-24T20:25:32.664Z,49.80
2018-07-24T20:28:00.328Z,49.90
2018-07-24T20:30:28.141Z,50.20
2018-07-24T20:32:55.878Z,50.30
2018-07-24T20:35:23.732Z,50.50
2018-07-24T20:37:51.424Z,51.00
2018-07-24T20:40:19.231Z,51.00
2018-07-24T20:42:46.946Z,51.20
2018-07-24T20:45:14.624Z,51.80
2018-07-24T20:47:42.331Z,51.70
2018-07-24T20:50:10.010Z,51.80
2018-07-24T20:52:37.740Z,51.70
2018-07-24T20:55:05.445Z,51.90
2018-07-24T20:57:33.862Z,51.90
2018-07-24T21:00:01.694Z,52.20
2018-07-24T21:02:29.358Z,52.10
2018-07-24T21:04:57.144Z,52.40
2018-07-24T21:07:24.943Z,53.00
2018-07-24T21:12:20.289Z,53.90
2018-07-24T21:14:48.065Z,53.20
2018-07-24T21:17:15.797Z,53.00
2018-07-24T21:19:43.674Z,53.10
2018-07-24T21:22:11.525Z,53.30
2018-07-24T21:24:39.225Z,53.40
2018-07-24T21:27:07.027Z,53.80
2018-07-24T21:29:34.753Z,53.60
2018-07-24T21:32:02.719Z,53.70
2018-07-24T21:34:30.471Z,54.10
2018-07-24T21:36:58.178Z,54.10
2018-07-24T21:39:25.864Z,54.10
2018-07-24T21:41:53.680Z,54.10
2018-07-24T21:44:21.447Z,54.40
2018-07-24T21:46:49.155Z,54.60
2018-07-24T21:49:16.908Z,54.70
2018-07-24T21:54:12.186Z,54.40
2018-07-24T21:56:39.982Z,54.30
2018-07-24T21:59:07.905Z,54.10
2018-07-24T22:01:36.497Z,54.40
2018-07-24T22:04:05.311Z,54.80
2018-07-24T22:06:33.936Z,55.30
2018-07-24T22:09:02.673Z,55.30
2018-07-24T22:11:31.132Z,55.70
2018-07-24T22:13:59.720Z,55.70
2018-07-24T22:16:27.438Z,55.70
2018-07-24T22:18:55.208Z,55.50
2018-07-24T22:21:23.062Z,55.20
2018-07-24T22:23:50.842Z,55.30
2018-07-24T22:26:18.764Z,54.90
2018-07-24T22:28:46.569Z,55.00
2018-07-24T22:31:14.386Z,55.40
2018-07-24T22:33:42.225Z,55.60
2018-07-24T22:36:10.166Z,55.90
2018-07-24T22:38:37.954Z,56.10
2018-07-24T22:41:05.677Z,56.00
2018-07-24T22:43:33.472Z,55.70
2018-07-24T22:48:29.670Z,55.70
2018-07-24T22:50:57.415Z,56.10
2018-07-24T22:53:25.128Z,56.00
2018-07-24T22:55:52.890Z,56.50
2018-07-24T22:58:20.602Z,56.50
2018-07-24T23:00:48.269Z,56.30
2018-07-24T23:03:16.045Z,56.30
2018-07-24T23:05:43.800Z,56.30
2018-07-24T23:08:12.196Z,57.00
2018-07-24T23:10:40.005Z,56.20
2018-07-24T23:13:07.690Z,56.70
2018-07-24T23:15:35.431Z,56.50
2018-07-24T23:18:03.130Z,57.40
2018-07-24T23:20:31.546Z,56.90
2018-07-24T23:22:59.224Z,57.00
2018-07-24T23:25:26.916Z,57.30
2018-07-24T23:27:54.666Z,58.10
2018-07-24T23:30:22.445Z,57.30
2018-07-24T23:32:50.278Z,57.00
2018-07-24T23:35:18.050Z,57.20
2018-07-24T23:37:45.745Z,56.90
2018-07-24T23:40:13.654Z,56.90
2018-07-24T23:45:08.942Z,57.70
2018-07-24T23:47:36.633Z,58.10
2018-07-24T23:50:04.866Z,57.50
2018-07-24T23:52:32.694Z,57.50
2018-07-24T23:55:00.387Z,57.70
2018-07-24T23:57:28.090Z,57.50
2018-07-24T23:59:55.949Z,57.30
